Wetterdaten: aktuell Dienstag, 11.12.2018 22:54
Datum Zeit Temp Htte Temp 10 cm Temp. Terr FeuchteHtte Luftdruck Niederschlag Wind Richtung Richtung Sonnenschein Helligkeit T Niederschl Taupunkt Windchill
11.12.2018 22:54 1,2 C 1,4 C 1,4 C 87 % 1022 hPa 0,0 l/m 0,0 km/h (0 Bft) W 260 0 min 0 lux 0 min -0,7 C 1,2 C
11.12.2018 21:54 1,2 C 1,2 C 1,4 C 86 % 1022 hPa 0,0 l/m 0,0 km/h (0 Bft) W 260 0 min 0 lux 0 min -0,9 C 1,2 C
11.12.2018 20:54 1,7 C 0,5 C 1,4 C 85 % 1022 hPa 0,0 l/m 0,0 km/h (0 Bft) W 260 0 min 0 lux 0 min -0,5 C 1,7 C
11.12.2018 19:54 2,3 C 1,5 C 2,3 C 85 % 1022 hPa 0,0 l/m 0,0 km/h (0 Bft) W 260 0 min 0 lux 0 min 0,0 C 2,3 C
11.12.2018 18:54 2,5 C 2,1 C 2,5 C 84 % 1022 hPa 0,0 l/m 0,9 km/h (0 Bft) W22.5 260 0 min 0 lux 0 min 0,1 C 2,5 C
11.12.2018 17:54 2,9 C 2,0 C 2,6 C 83 % 1021 hPa 0,0 l/m 0,0 km/h (0 Bft) W 270 0 min 0 lux 0 min 0,3 C 2,9 C
11.12.2018 16:54 3,5 C 2,3 C 3,2 C 82 % 1021 hPa 0,0 l/m 11,5 km/h (2 Bft) W22.5 260 0 min 0 lux 0 min 0,7 C 0,5 C
11.12.2018 15:54 4,3 C 3,0 C 4,1 C 83 % 1021 hPa 0,0 l/m 12,5 km/h (2 Bft) W-NW45 285 10 min 1,16 klux 0 min 1,7 C 1,3 C
11.12.2018 14:54 4,5 C 4,1 C 4,8 C 84 % 1021 hPa 0,0 l/m 16,2 km/h (3 Bft) W22.5 270 50 min 18,9 klux 0 min 2,0 C 0,9 C
11.12.2018 13:54 4,7 C 3,3 C 3,9 C 83 % 1021 hPa 0,4 l/m 22,4 km/h (4 Bft) W-NW45 295 10 min 7,04 klux 5 min 2,1 C 0,4 C
11.12.2018 12:54 4,5 C 4,3 C 4,2 C 84 % 1021 hPa 0,0 l/m 24,5 km/h (4 Bft) W-SW67.5 255 0 min 12,8 klux 0 min 2,0 C -0,1 C
11.12.2018 11:54 4,0 C 4,5 C 4,0 C 85 % 1021 hPa 0,0 l/m 12,9 km/h (3 Bft) W-SW67.5 240 0 min 16,9 klux 0 min 1,7 C 0,9 C
11.12.2018 10:54 3,5 C 3,9 C 3,7 C 87 % 1021 hPa 0,0 l/m 14,0 km/h (3 Bft) W45 265 10 min 13,4 klux 0 min 1,5 C 0,1 C
11.12.2018 09:54 2,8 C 3,2 C 3,0 C 88 % 1021 hPa 0,0 l/m 18,6 km/h (3 Bft) W-NW45 285 0 min 6,44 klux 0 min 1,0 C -1,5 C
11.12.2018 08:54 2,3 C 2,4 C 2,5 C 87 % 1021 hPa 0,0 l/m 7,7 km/h (2 Bft) W-SW22.5 250 0 min 1,34 klux 0 min 0,4 C 0,1 C
11.12.2018 07:54 2,1 C 1,8 C 2,1 C 87 % 1021 hPa 0,0 l/m 10,6 km/h (2 Bft) W45 265 0 min 51 lux 0 min 0,2 C -0,9 C
11.12.2018 06:54 2,1 C 1,6 C 2,1 C 87 % 1020 hPa 0,0 l/m 20,7 km/h (4 Bft) W-SW45 245 0 min 0 lux 0 min 0,2 C -2,7 C
11.12.2018 05:54 1,8 C 1,7 C 2,0 C 87 % 1020 hPa 0,0 l/m 11,7 km/h (2 Bft) W22.5 260 0 min 0 lux 0 min -0,1 C -1,6 C
11.12.2018 04:54 1,7 C 1,3 C 1,7 C 86 % 1020 hPa 0,0 l/m 11,1 km/h (2 Bft) W-SW22.5 255 0 min 0 lux 0 min -0,4 C -1,5 C
11.12.2018 03:54 2,0 C 1,7 C 2,0 C 86 % 1020 hPa 0,0 l/m 9,1 km/h (2 Bft) W22.5 280 0 min 0 lux 0 min -0,1 C -0,7 C
11.12.2018 02:55 1,9 C 2,0 C 2,2 C 87 % 1020 hPa 0,0 l/m 12,3 km/h (2 Bft) W22.5 275 0 min 0 lux 0 min -0,0 C -1,6 C
11.12.2018 01:54 1,8 C 1,6 C 2,0 C 87 % 1020 hPa 0,0 l/m 13,3 km/h (3 Bft) W22.5 280 0 min 0 lux 0 min -0,1 C -1,9 C
11.12.2018 00:54 1,6 C 1,2 C 1,6 C 86 % 1020 hPa 0,0 l/m 14,5 km/h (3 Bft) W45 265 0 min 0 lux 0 min -0,5 C -2,4 C
11.12.2018 00:04 1,7 C 1,5 C 1,6 C 86 % 1020 hPa 0,0 l/m 13,0 km/h (3 Bft) W22.5 275 0 min 0 lux 0 min -0,4 C -1,9 C
_ Min-Zeit 21:34 20:44 21:04 16:24 00:04 - 17:44 - - - - - 21:34 01:09
Minimum _ 1,2 C 0,3 C 1,3 C 82 % 1020 hPa - 0,0 km/h (0 Bft) - - - - - -1,0 C -4,0 C
_ Max-Zeit 13:44 10:34 15:04 06:39 17:59 13:54 13:49 - - 10:29 14:09 13:54 14:59 16:39
Maximum _ 4,7 C 4,5 C 5,1 C 88 % 1022 hPa 0,4 l/m 34,0 km/h
W (5 Bft)
- - 5 min 32,2 klux 5 min 2,1 C 3,7 C
Durchschnitt _ 2,7 C 2,2 C 2,7 C 85 % 1021 hPa #0,4 l/m 10,9 km/h (2 Bft) W - #1:20 h 3,33 klux #5 min. 0,5 C 0,0 C